Time;durP1;ratioP1;P1;durP2;ratioP2;P2;SDS_P1;SDS_P2;PMS_P1;PMS_P2;Temp;Humidity;BMP_temperature;BMP_pressure;BME280_temperature;BME280_humidity;BME280_pressure;Samples;Min_cycle;Max_cycle;Signal;HPM_P1;HPM_P2
2022/07/16 00:02:26;;;;;;;2.95;1.98;;;20.60;62.00;;;;;;5055722;28;20033;-66
2022/07/16 00:04:52;;;;;;;2.72;2.08;;;20.50;63.00;;;;;;5072721;28;20465;-66
2022/07/16 00:07:19;;;;;;;3.58;1.83;;;20.50;63.40;;;;;;5076903;28;20051;-66
2022/07/16 00:09:45;;;;;;;5.70;2.10;;;20.50;63.80;;;;;;5096257;28;20020;-67
2022/07/16 00:12:10;;;;;;;5.15;1.85;;;20.40;63.60;;;;;;5096606;28;20056;-67
2022/07/16 00:14:36;;;;;;;2.42;1.77;;;20.40;63.60;;;;;;5096260;28;20036;-67
2022/07/16 00:17:02;;;;;;;3.40;1.60;;;20.50;64.30;;;;;;5096682;28;20379;-66
2022/07/16 00:19:28;;;;;;;2.35;1.65;;;20.40;64.90;;;;;;5096188;28;20016;-67
2022/07/16 00:21:55;;;;;;;2.97;2.05;;;20.30;64.90;;;;;;5096763;28;20456;-67
2022/07/16 00:24:22;;;;;;;3.42;2.00;;;20.20;65.50;;;;;;5096595;28;20024;-66
2022/07/16 00:26:48;;;;;;;3.05;2.00;;;20.20;64.90;;;;;;5096055;28;20081;-65
2022/07/16 00:29:15;;;;;;;3.20;1.85;;;20.20;64.90;;;;;;5096379;28;20072;-65
2022/07/16 00:31:42;;;;;;;2.40;1.65;;;20.20;64.60;;;;;;5095774;28;20036;-66
2022/07/16 00:34:09;;;;;;;2.47;2.05;;;20.20;65.50;;;;;;5096453;28;20059;-66
2022/07/16 00:36:36;;;;;;;3.15;1.88;;;20.20;65.50;;;;;;5094527;28;20032;-66
2022/07/16 00:39:03;;;;;;;2.72;1.70;;;20.20;65.70;;;;;;5096587;28;20517;-66
2022/07/16 00:41:29;;;;;;;2.13;1.60;;;20.20;65.50;;;;;;5095805;28;20032;-66
2022/07/16 00:44:07;;;;;;;2.08;1.70;;;20.20;65.60;;;;;;5095950;28;20107;-66
2022/07/16 00:46:33;;;;;;;2.72;1.88;;;20.20;65.50;;;;;;5095644;28;20092;-67
2022/07/16 00:48:59;;;;;;;3.40;1.98;;;20.10;65.70;;;;;;5096414;28;20062;-66
2022/07/16 00:51:26;;;;;;;2.40;1.60;;;20.20;65.60;;;;;;5096077;28;20024;-66
2022/07/16 00:53:53;;;;;;;3.08;1.63;;;20.20;65.30;;;;;;5095541;28;20024;-65
2022/07/16 00:56:20;;;;;;;3.35;1.95;;;20.20;64.80;;;;;;5095566;28;20496;-66
2022/07/16 00:58:47;;;;;;;2.42;1.58;;;20.20;65.00;;;;;;5094098;28;20096;-66
2022/07/16 01:01:14;;;;;;;3.03;2.08;;;20.10;64.70;;;;;;5095957;28;20089;-66
2022/07/16 01:03:41;;;;;;;4.97;1.85;;;20.10;65.20;;;;;;5095246;28;20063;-66
2022/07/16 01:06:08;;;;;;;4.30;1.58;;;20.10;65.10;;;;;;5095494;28;20028;-66
2022/07/16 01:08:35;;;;;;;2.58;1.85;;;20.00;65.90;;;;;;5094432;28;20069;-66
2022/07/16 01:11:04;;;;;;;3.85;1.98;;;19.90;65.90;;;;;;5095386;28;20055;-66
2022/07/16 01:13:31;;;;;;;2.22;1.73;;;19.80;67.20;;;;;;5095181;28;20498;-68
2022/07/16 01:15:56;;;;;;;2.63;1.88;;;19.70;67.70;;;;;;5095241;28;20081;-66
2022/07/16 01:18:22;;;;;;;4.00;1.92;;;19.70;68.30;;;;;;5093980;28;20031;-65
2022/07/16 01:20:48;;;;;;;2.95;1.85;;;19.60;68.10;;;;;;5094983;28;20024;-66
2022/07/16 01:23:23;;;;;;;1.90;1.60;;;19.60;67.80;;;;;;5095729;28;20026;-66
2022/07/16 01:25:50;;;;;;;2.47;1.90;;;19.50;68.20;;;;;;5094905;28;20614;-66
2022/07/16 01:28:16;;;;;;;4.68;2.28;;;19.50;67.80;;;;;;5095137;28;20028;-66
2022/07/16 01:30:42;;;;;;;5.13;1.58;;;19.50;67.30;;;;;;5094772;28;20070;-66
2022/07/16 01:33:22;;;;;;;2.20;1.60;;;19.50;67.90;;;;;;5095290;28;20020;-66
2022/07/16 01:35:49;;;;;;;4.38;2.05;;;19.50;67.20;;;;;;5094629;28;20040;-66
2022/07/16 01:38:15;;;;;;;1.88;1.48;;;19.50;67.20;;;;;;5095251;28;20024;-66
2022/07/16 01:40:41;;;;;;;3.72;1.92;;;19.50;67.20;;;;;;5093325;28;20032;-66
2022/07/16 01:43:14;;;;;;;2.05;1.85;;;19.50;67.10;;;;;;5095092;28;20020;-66
2022/07/16 01:45:40;;;;;;;1.65;1.40;;;19.50;66.90;;;;;;5094538;28;20101;-66
2022/07/16 01:48:06;;;;;;;3.33;1.80;;;19.50;67.00;;;;;;5095175;28;20445;-66
2022/07/16 01:50:31;;;;;;;2.25;1.50;;;19.50;67.00;;;;;;5094625;28;20024;-68
2022/07/16 01:52:57;;;;;;;3.13;1.50;;;19.50;67.00;;;;;;5095025;28;20031;-66
2022/07/16 01:55:23;;;;;;;2.60;1.52;;;19.50;66.80;;;;;;5094543;28;20125;-66
2022/07/16 01:57:48;;;;;;;3.15;1.50;;;19.50;66.50;;;;;;5094022;28;20024;-66
2022/07/16 02:00:14;;;;;;;2.28;1.75;;;19.50;66.70;;;;;;5095067;28;20024;-66
2022/07/16 02:02:40;;;;;;;2.20;1.60;;;19.50;67.30;;;;;;5094164;28;20474;-67
2022/07/16 02:05:06;;;;;;;4.03;1.50;;;19.40;67.60;;;;;;5094768;28;20073;-66
2022/07/16 02:07:31;;;;;;;3.35;1.98;;;19.40;67.60;;;;;;5093687;28;20036;-68
2022/07/16 02:09:57;;;;;;;3.00;1.60;;;19.30;67.60;;;;;;5094302;28;20037;-66
2022/07/16 02:12:22;;;;;;;3.22;1.48;;;19.40;67.50;;;;;;5094533;28;20027;-66
2022/07/16 02:14:48;;;;;;;2.55;1.73;;;19.40;66.90;;;;;;5094006;28;20464;-66
2022/07/16 02:17:14;;;;;;;2.80;1.75;;;19.40;67.30;;;;;;5094360;28;20067;-66
2022/07/16 02:19:39;;;;;;;2.30;1.48;;;19.30;66.10;;;;;;5094085;28;20024;-66
2022/07/16 02:22:06;;;;;;;1.60;1.50;;;19.30;66.20;;;;;;5094320;28;20453;-66
2022/07/16 02:24:32;;;;;;;1.65;1.30;;;19.30;66.80;;;;;;5094297;28;20078;-66
2022/07/16 02:26:57;;;;;;;1.73;1.58;;;19.30;66.50;;;;;;5093640;28;20028;-66
2022/07/16 02:29:23;;;;;;;1.50;1.23;;;19.30;66.50;;;;;;5093559;28;20054;-66
2022/07/16 02:31:49;;;;;;;1.83;1.50;;;19.20;66.90;;;;;;5093594;28;20071;-66
2022/07/16 02:34:16;;;;;;;3.67;1.77;;;19.20;67.00;;;;;;5094115;28;20379;-67
2022/07/16 02:36:41;;;;;;;2.67;1.45;;;19.20;66.80;;;;;;5093355;28;20078;-66
2022/07/16 02:39:07;;;;;;;3.05;1.83;;;19.20;66.60;;;;;;5094039;28;20060;-66
2022/07/16 02:41:33;;;;;;;3.10;1.50;;;19.10;67.00;;;;;;5094304;28;20030;-66
2022/07/16 02:43:58;;;;;;;2.60;1.30;;;19.10;67.00;;;;;;5093506;28;20520;-66
2022/07/16 02:46:24;;;;;;;1.65;1.50;;;19.00;68.30;;;;;;5093836;28;20032;-65
2022/07/16 02:48:50;;;;;;;2.53;1.88;;;18.90;68.50;;;;;;5093165;28;20024;-65
2022/07/16 02:51:15;;;;;;;3.00;1.45;;;18.80;68.90;;;;;;5093819;28;20103;-65
2022/07/16 02:53:41;;;;;;;3.08;1.77;;;18.80;69.10;;;;;;5093151;28;20381;-65
2022/07/16 02:56:07;;;;;;;1.67;1.38;;;18.80;69.30;;;;;;5093455;28;20032;-66
2022/07/16 02:58:32;;;;;;;2.30;1.40;;;18.70;69.50;;;;;;5093716;28;20103;-66
2022/07/16 03:00:58;;;;;;;2.42;1.42;;;18.70;69.90;;;;;;5092856;28;20028;-67
2022/07/16 03:03:24;;;;;;;2.00;1.70;;;18.80;68.70;;;;;;5093247;28;20051;-66
2022/07/16 03:05:49;;;;;;;3.33;1.58;;;18.80;68.30;;;;;;5092683;28;20114;-65
2022/07/16 03:08:15;;;;;;;2.33;1.95;;;18.80;68.20;;;;;;5093477;28;20024;-65
2022/07/16 03:10:40;;;;;;;3.83;1.60;;;18.80;68.50;;;;;;5092454;28;20111;-66
2022/07/16 03:13:06;;;;;;;2.63;1.70;;;18.70;68.50;;;;;;5093295;28;20024;-66
2022/07/16 03:15:32;;;;;;;3.40;1.55;;;18.80;69.30;;;;;;5093329;28;20423;-66
2022/07/16 03:17:57;;;;;;;2.55;1.42;;;18.70;69.60;;;;;;5092847;28;20597;-66
2022/07/16 03:20:23;;;;;;;2.63;1.65;;;18.60;70.10;;;;;;5093238;28;20515;-66
2022/07/16 03:22:49;;;;;;;2.20;1.55;;;18.50;70.50;;;;;;5092489;28;20357;-67
2022/07/16 03:25:16;;;;;;;3.33;1.95;;;18.50;71.30;;;;;;5093272;28;20472;-66
2022/07/16 03:27:42;;;;;;;2.53;1.92;;;18.40;71.10;;;;;;5092486;28;20081;-67
2022/07/16 03:30:08;;;;;;;2.25;1.50;;;18.50;70.80;;;;;;5093219;28;20044;-67
2022/07/16 03:32:34;;;;;;;2.08;1.55;;;18.50;70.10;;;;;;5093156;28;20028;-66
2022/07/16 03:35:02;;;;;;;2.90;1.50;;;18.50;69.70;;;;;;5092607;28;20960;-67
2022/07/16 03:37:28;;;;;;;2.63;1.30;;;18.60;69.40;;;;;;5092945;28;20035;-66
2022/07/16 03:39:54;;;;;;;1.67;1.45;;;18.60;69.50;;;;;;5091850;28;20028;-66
2022/07/16 03:42:19;;;;;;;2.83;1.88;;;18.60;70.50;;;;;;5092858;28;20032;-66
2022/07/16 03:44:45;;;;;;;3.38;1.50;;;18.50;70.90;;;;;;5092284;28;20026;-67
2022/07/16 03:47:10;;;;;;;1.65;1.52;;;18.50;71.50;;;;;;5093053;28;20028;-66
2022/07/16 03:49:36;;;;;;;2.10;1.52;;;18.50;71.20;;;;;;5092823;28;20421;-66
2022/07/16 03:52:02;;;;;;;2.78;1.63;;;18.50;70.90;;;;;;5092078;28;20031;-66
2022/07/16 03:54:27;;;;;;;3.67;2.00;;;18.50;70.70;;;;;;5093087;28;20024;-66
2022/07/16 03:56:53;;;;;;;1.92;1.27;;;18.60;69.80;;;;;;5092237;28;20032;-66
2022/07/16 03:59:18;;;;;;;3.83;1.90;;;18.60;69.90;;;;;;5092674;28;20402;-66
2022/07/16 04:01:44;;;;;;;1.85;1.23;;;18.60;69.40;;;;;;5092112;28;20024;-67
2022/07/16 04:04:10;;;;;;;3.28;1.50;;;18.70;69.70;;;;;;5092651;28;20031;-66
2022/07/16 04:06:35;;;;;;;2.25;1.48;;;18.70;70.00;;;;;;5092764;28;20461;-67
2022/07/16 04:09:02;;;;;;;2.38;1.38;;;18.70;69.60;;;;;;5092046;28;20491;-67
2022/07/16 04:11:27;;;;;;;2.65;1.40;;;18.70;69.50;;;;;;5092645;28;20031;-66
2022/07/16 04:13:53;;;;;;;2.35;1.38;;;18.70;69.50;;;;;;5091484;28;20024;-67
2022/07/16 04:16:18;;;;;;;2.47;1.90;;;18.70;70.50;;;;;;5092347;28;20042;-66
2022/07/16 04:18:44;;;;;;;2.35;1.65;;;18.70;70.00;;;;;;5092079;28;20020;-67
2022/07/16 04:21:10;;;;;;;1.85;1.38;;;18.80;69.90;;;;;;5092495;28;20063;-66
2022/07/16 04:23:35;;;;;;;3.03;1.50;;;18.80;70.40;;;;;;5092626;28;20070;-67
2022/07/16 04:26:01;;;;;;;2.22;1.50;;;18.90;69.90;;;;;;5091738;28;20032;-66
2022/07/16 04:28:27;;;;;;;2.08;1.50;;;19.00;69.40;;;;;;5092241;28;20055;-66
2022/07/16 04:30:53;;;;;;;2.08;1.80;;;18.90;68.90;;;;;;5091731;28;20095;-67
2022/07/16 04:33:19;;;;;;;2.22;1.50;;;19.00;69.20;;;;;;5092454;28;20020;-66
2022/07/16 04:35:44;;;;;;;2.45;1.98;;;19.10;69.00;;;;;;5091958;28;20040;-69
2022/07/16 04:38:10;;;;;;;2.13;1.48;;;19.10;69.20;;;;;;5092393;28;20026;-66
2022/07/16 04:40:36;;;;;;;3.72;1.60;;;19.30;69.00;;;;;;5092133;28;20024;-66
2022/07/16 04:43:01;;;;;;;2.55;1.70;;;19.30;69.00;;;;;;5091787;28;20024;-66
2022/07/16 04:45:27;;;;;;;3.75;1.60;;;19.50;68.10;;;;;;5092271;28;20020;-66
2022/07/16 04:47:52;;;;;;;2.70;1.60;;;19.70;67.20;;;;;;5091947;28;20073;-66
2022/07/16 04:50:18;;;;;;;3.38;1.65;;;19.80;66.30;;;;;;5092275;28;20488;-66
2022/07/16 04:52:44;;;;;;;4.07;2.22;;;20.00;64.80;;;;;;5094587;28;20507;-68
2022/07/16 04:55:10;;;;;;;3.30;1.70;;;20.20;64.30;;;;;;5095601;28;20028;-66
2022/07/16 04:57:35;;;;;;;2.20;1.65;;;20.30;63.40;;;;;;5095879;28;20059;-66
2022/07/16 05:00:01;;;;;;;2.63;1.75;;;20.50;64.00;;;;;;5095375;28;20024;-67
2022/07/16 05:05:11;;;;;;;3.05;1.77;;;21.00;62.70;;;;;;5095448;28;20027;-67
2022/07/16 05:07:36;;;;;;;3.00;1.92;;;21.20;62.00;;;;;;5095882;28;20027;-67
2022/07/16 05:10:03;;;;;;;3.25;1.70;;;21.40;60.90;;;;;;5094508;28;20095;-67
2022/07/16 05:12:28;;;;;;;5.38;2.10;;;21.60;60.10;;;;;;5095716;28;20039;-67
2022/07/16 05:14:54;;;;;;;2.38;1.77;;;21.80;59.90;;;;;;5095175;28;20028;-66
2022/07/16 05:17:20;;;;;;;2.28;1.58;;;22.10;58.50;;;;;;5095499;28;20039;-66
2022/07/16 05:19:45;;;;;;;1.80;1.60;;;22.30;58.10;;;;;;5095503;28;20030;-66
2022/07/16 05:22:11;;;;;;;2.40;2.00;;;22.60;57.80;;;;;;5094756;28;20043;-66
2022/07/16 05:24:37;;;;;;;1.73;1.63;;;22.90;56.50;;;;;;5095419;28;20503;-66
2022/07/16 05:27:03;;;;;;;2.38;1.60;;;23.20;55.40;;;;;;5094857;28;20032;-66
2022/07/16 05:29:28;;;;;;;1.67;1.48;;;23.40;53.70;;;;;;5095351;28;20044;-66
2022/07/16 05:31:54;;;;;;;2.63;1.73;;;23.70;52.60;;;;;;5094826;28;20349;-66
2022/07/16 05:34:19;;;;;;;1.33;1.10;;;24.00;51.80;;;;;;5095184;28;20035;-66
2022/07/16 05:36:45;;;;;;;3.03;1.45;;;24.20;48.40;;;;;;5094908;28;20043;-66
2022/07/16 05:39:11;;;;;;;2.63;1.30;;;24.50;46.90;;;;;;5094855;28;20142;-66
2022/07/16 05:41:36;;;;;;;2.92;1.42;;;24.80;46.30;;;;;;5093584;28;20031;-66
2022/07/16 05:44:02;;;;;;;3.05;1.20;;;25.10;46.70;;;;;;5094234;28;20047;-66
2022/07/16 05:46:28;;;;;;;1.73;1.30;;;25.40;45.70;;;;;;5094334;28;20031;-66
2022/07/16 05:48:54;;;;;;;1.67;1.40;;;25.60;45.40;;;;;;5093987;28;20016;-68
2022/07/16 05:51:19;;;;;;;1.55;1.17;;;26.00;44.10;;;;;;5091843;28;20509;-66
2022/07/16 05:53:45;;;;;;;2.92;1.13;;;26.40;43.60;;;;;;5094561;28;20040;-66
2022/07/16 05:56:10;;;;;;;2.15;1.05;;;26.60;42.30;;;;;;5093377;28;20032;-65
2022/07/16 05:58:36;;;;;;;0.68;0.68;;;27.00;41.30;;;;;;5094081;28;20028;-67
2022/07/16 06:01:02;;;;;;;1.83;0.90;;;27.30;38.10;;;;;;5093167;28;20042;-66
2022/07/16 06:03:27;;;;;;;1.70;0.80;;;27.40;37.70;;;;;;5093308;28;20033;-68
2022/07/16 06:05:53;;;;;;;1.00;0.90;;;27.60;38.20;;;;;;5092896;28;20031;-67
2022/07/16 06:08:18;;;;;;;2.47;1.20;;;27.90;37.40;;;;;;5094026;28;20095;-67
2022/07/16 06:10:44;;;;;;;1.10;0.93;;;28.00;36.40;;;;;;5093536;28;20024;-67
2022/07/16 06:13:10;;;;;;;2.03;1.00;;;28.10;36.50;;;;;;5093397;28;20692;-67
2022/07/16 06:15:36;;;;;;;1.73;0.80;;;28.40;37.00;;;;;;5093478;28;20031;-67
2022/07/16 06:18:02;;;;;;;0.88;0.60;;;28.80;37.00;;;;;;5090561;28;20031;-67
2022/07/16 06:20:28;;;;;;;2.58;1.15;;;29.00;34.50;;;;;;5093966;28;20020;-66
2022/07/16 06:22:56;;;;;;;1.10;1.00;;;29.20;35.60;;;;;;5093564;28;20020;-69
2022/07/16 06:25:22;;;;;;;0.93;0.80;;;29.50;34.20;;;;;;5094197;28;20096;-66
2022/07/16 06:27:48;;;;;;;2.75;1.10;;;29.50;33.50;;;;;;5094040;28;20461;-66
2022/07/16 06:30:14;;;;;;;0.77;0.70;;;29.70;34.20;;;;;;5093211;28;20044;-67
2022/07/16 06:32:40;;;;;;;2.40;0.90;;;29.90;33.40;;;;;;5094144;28;20028;-66
2022/07/16 06:35:06;;;;;;;1.20;0.80;;;29.90;33.80;;;;;;5092891;28;20392;-67
2022/07/16 06:37:32;;;;;;;2.30;1.00;;;29.80;32.60;;;;;;5093889;28;20032;-67
2022/07/16 06:39:57;;;;;;;1.50;0.93;;;29.90;32.60;;;;;;5093623;28;20119;-67
2022/07/16 06:42:23;;;;;;;1.45;0.82;;;30.00;32.80;;;;;;5093252;28;20032;-66
2022/07/16 06:44:48;;;;;;;0.82;0.80;;;30.00;33.20;;;;;;5093406;28;20028;-66
2022/07/16 06:47:14;;;;;;;1.75;0.95;;;30.00;32.70;;;;;;5093180;28;20024;-67
2022/07/16 06:49:40;;;;;;;2.20;1.05;;;30.10;33.20;;;;;;5093901;28;20036;-67
2022/07/16 06:52:06;;;;;;;1.88;1.20;;;30.30;32.60;;;;;;5092921;28;20028;-67
2022/07/16 06:54:31;;;;;;;0.98;0.90;;;30.50;32.70;;;;;;5093231;28;20081;-67
2022/07/16 06:56:57;;;;;;;1.10;1.00;;;30.50;31.90;;;;;;5092819;28;20032;-67
2022/07/16 06:59:22;;;;;;;1.50;1.30;;;30.10;32.40;;;;;;5093208;28;20020;-66
2022/07/16 07:01:48;;;;;;;1.38;1.00;;;30.10;32.80;;;;;;5091708;28;20036;-66
2022/07/16 07:04:14;;;;;;;1.40;1.10;;;30.10;33.60;;;;;;5092533;28;20030;-66
2022/07/16 07:06:39;;;;;;;2.08;0.82;;;30.00;33.70;;;;;;5093352;28;20055;-67
2022/07/16 07:09:05;;;;;;;1.20;1.10;;;30.30;33.90;;;;;;5092673;28;20042;-67
2022/07/16 07:11:30;;;;;;;1.70;0.82;;;30.40;33.50;;;;;;5092875;28;20032;-66
2022/07/16 07:13:56;;;;;;;1.60;1.10;;;30.50;33.70;;;;;;5092861;28;20357;-69
2022/07/16 07:16:22;;;;;;;1.13;0.90;;;30.90;33.90;;;;;;5092922;28;20059;-66
2022/07/16 07:18:48;;;;;;;1.40;1.15;;;31.20;33.30;;;;;;5092656;28;20110;-67
2022/07/16 07:21:14;;;;;;;1.58;1.10;;;31.50;33.00;;;;;;5092280;28;20028;-67
2022/07/16 07:23:39;;;;;;;1.20;1.10;;;31.80;32.70;;;;;;5092822;28;20138;-66
2022/07/16 07:26:05;;;;;;;1.00;0.90;;;32.10;32.50;;;;;;5092532;28;20078;-66
2022/07/16 07:28:31;;;;;;;1.67;0.90;;;32.30;31.90;;;;;;5092755;28;20119;-66
2022/07/16 07:30:57;;;;;;;1.10;0.90;;;32.50;32.50;;;;;;5092580;28;20068;-69
2022/07/16 07:33:23;;;;;;;4.22;1.10;;;32.70;31.30;;;;;;5093024;28;20030;-68
2022/07/16 07:35:49;;;;;;;2.30;1.42;;;32.50;31.40;;;;;;5092860;28;20119;-68
2022/07/16 07:38:15;;;;;;;1.00;0.90;;;32.80;31.70;;;;;;5092104;28;20048;-67
2022/07/16 07:40:40;;;;;;;1.77;1.20;;;32.70;31.40;;;;;;5092938;28;20060;-68
2022/07/16 07:43:06;;;;;;;1.48;1.27;;;32.80;31.30;;;;;;5092528;28;20036;-68
2022/07/16 07:45:32;;;;;;;2.20;1.17;;;32.70;31.30;;;;;;5092802;28;20020;-68
2022/07/16 07:47:57;;;;;;;1.63;1.10;;;32.80;31.80;;;;;;5092168;28;20028;-70
2022/07/16 07:50:23;;;;;;;1.30;1.20;;;33.10;31.40;;;;;;5092414;28;20035;-67
2022/07/16 07:52:49;;;;;;;1.45;1.10;;;33.30;32.10;;;;;;5092465;28;20039;-68
2022/07/16 07:55:15;;;;;;;1.75;1.10;;;34.10;30.90;;;;;;5091995;28;20032;-68
2022/07/16 07:57:40;;;;;;;1.25;1.08;;;34.80;30.50;;;;;;5092115;28;20074;-67
2022/07/16 08:00:08;;;;;;;1.85;1.20;;;35.50;29.90;;;;;;5091517;28;20027;-67
2022/07/16 08:02:34;;;;;;;1.10;1.00;;;36.20;29.30;;;;;;5092070;28;20057;-68
2022/07/16 08:05:00;;;;;;;1.98;1.20;;;36.30;29.50;;;;;;5086724;28;20037;-70
2022/07/16 08:07:25;;;;;;;1.77;1.20;;;37.00;28.60;;;;;;5083745;28;20032;-68
2022/07/16 08:09:51;;;;;;;3.45;1.20;;;37.60;28.60;;;;;;5092030;28;20028;-67
2022/07/16 08:12:17;;;;;;;2.22;1.15;;;38.40;28.40;;;;;;5091467;28;20073;-67
2022/07/16 08:14:42;;;;;;;2.58;1.30;;;38.00;27.50;;;;;;5091216;28;20028;-67
2022/07/16 08:17:08;;;;;;;2.47;1.20;;;38.20;27.70;;;;;;5092102;28;20085;-67
2022/07/16 08:19:34;;;;;;;0.98;0.98;;;38.30;27.60;;;;;;5092539;28;20028;-67
2022/07/16 08:22:00;;;;;;;3.28;1.10;;;38.80;27.80;;;;;;5091752;28;20515;-70
2022/07/16 08:27:11;;;;;;;1.52;0.93;;;39.30;27.50;;;;;;5093564;28;20430;-68
2022/07/16 08:29:37;;;;;;;1.40;1.20;;;39.40;27.50;;;;;;5096027;28;20044;-67
2022/07/16 08:32:04;;;;;;;1.08;0.90;;;39.40;27.50;;;;;;5095863;28;20054;-69
2022/07/16 08:34:29;;;;;;;1.20;1.10;;;39.40;27.00;;;;;;5096475;28;20176;-67
2022/07/16 08:36:55;;;;;;;1.30;1.10;;;39.20;27.00;;;;;;5096305;28;20384;-67
2022/07/16 08:39:22;;;;;;;1.30;1.20;;;39.00;27.00;;;;;;5095860;28;20165;-68
2022/07/16 08:41:48;;;;;;;1.25;1.15;;;39.10;27.20;;;;;;5096200;28;20032;-67
2022/07/16 08:44:15;;;;;;;2.13;1.20;;;39.30;27.40;;;;;;5095826;28;20020;-67
2022/07/16 08:46:41;;;;;;;1.60;1.27;;;39.10;27.60;;;;;;5096358;28;20028;-67
2022/07/16 08:49:08;;;;;;;1.33;1.17;;;38.90;27.30;;;;;;5095911;28;20028;-68
2022/07/16 08:51:35;;;;;;;3.92;1.30;;;38.10;27.60;;;;;;5095697;28;20024;-68
2022/07/16 08:54:07;;;;;;;2.35;1.35;;;36.80;28.00;;;;;;5096300;28;20020;-68
2022/07/16 08:56:34;;;;;;;1.75;1.20;;;35.80;28.70;;;;;;5096063;28;20177;-67
2022/07/16 08:59:01;;;;;;;1.48;1.30;;;35.30;29.50;;;;;;5095944;28;20036;-68
2022/07/16 09:01:29;;;;;;;1.20;1.10;;;34.80;29.60;;;;;;5095555;28;20027;-67
2022/07/16 09:03:59;;;;;;;1.75;1.15;;;34.20;29.70;;;;;;5095963;28;20059;-67
2022/07/16 09:06:26;;;;;;;1.67;1.17;;;33.70;31.30;;;;;;5095610;28;20035;-67
2022/07/16 09:08:53;;;;;;;2.40;1.55;;;33.30;30.80;;;;;;5095319;28;20023;-68
2022/07/16 09:11:21;;;;;;;1.27;1.08;;;33.00;31.30;;;;;;5094996;28;20104;-69
2022/07/16 09:14:11;;;;;;;1.80;1.40;;;32.60;31.70;;;;;;5095650;28;20024;-67
2022/07/16 09:16:45;;;;;;;2.30;1.37;;;32.30;32.00;;;;;;5095518;28;20541;-67
2022/07/16 09:19:14;;;;;;;1.92;1.10;;;31.90;32.00;;;;;;5094880;28;20130;-67
2022/07/16 09:22:04;;;;;;;2.65;1.40;;;31.80;33.00;;;;;;5095428;28;20059;-68
2022/07/16 09:24:31;;;;;;;;;;;31.70;32.80;;;;;;5095619;28;20528;-67
2022/07/16 09:27:05;;;;;;;4.68;1.55;;;31.50;33.50;;;;;;5095252;28;19992;-67
2022/07/16 09:29:45;;;;;;;1.40;1.13;;;31.20;33.90;;;;;;5094826;28;20075;-67
2022/07/16 09:32:12;;;;;;;1.67;1.52;;;31.10;33.90;;;;;;5094783;28;20024;-68
2022/07/16 09:34:38;;;;;;;1.13;1.02;;;30.90;34.10;;;;;;5095246;28;20028;-67
2022/07/16 09:37:06;;;;;;;1.75;1.20;;;30.90;34.60;;;;;;5095426;28;20035;-67
2022/07/16 09:39:33;;;;;;;2.03;1.45;;;30.70;34.90;;;;;;5093734;28;20145;-68
2022/07/16 09:42:00;;;;;;;1.58;1.10;;;30.30;35.10;;;;;;5095012;28;20028;-68
2022/07/16 09:44:31;;;;;;;1.60;1.23;;;29.80;36.10;;;;;;5094223;28;20031;-68
2022/07/16 09:47:11;;;;;;;1.33;1.20;;;29.50;36.90;;;;;;5095042;28;20039;-67
2022/07/16 09:49:39;;;;;;;1.45;1.27;;;29.30;37.50;;;;;;5095313;28;20107;-67
2022/07/16 09:52:07;;;;;;;1.60;1.50;;;29.30;38.00;;;;;;5094442;28;20321;-67
2022/07/16 09:54:37;;;;;;;1.70;1.20;;;29.10;38.10;;;;;;5094424;28;20067;-67
2022/07/16 09:57:13;;;;;;;2.05;1.10;;;29.00;38.10;;;;;;5094587;28;20040;-67
2022/07/16 09:59:39;;;;;;;2.05;1.30;;;28.90;37.70;;;;;;5094355;28;20481;-67
2022/07/16 10:02:05;;;;;;;1.90;1.25;;;28.90;38.10;;;;;;5094711;28;20544;-67
2022/07/16 10:04:31;;;;;;;1.40;1.17;;;28.70;37.40;;;;;;5093978;28;20099;-68
2022/07/16 10:06:57;;;;;;;1.77;1.23;;;28.70;37.50;;;;;;5094842;28;20027;-68
2022/07/16 10:09:24;;;;;;;1.85;1.48;;;28.60;37.50;;;;;;5093869;28;20024;-68
2022/07/16 10:11:51;;;;;;;1.38;1.20;;;28.50;38.50;;;;;;5094452;28;20024;-67
2022/07/16 10:14:17;;;;;;;1.20;1.10;;;28.40;39.20;;;;;;5093457;28;20024;-67
2022/07/16 10:16:45;;;;;;;1.17;1.08;;;28.40;39.10;;;;;;5094342;28;20085;-68
2022/07/16 10:19:12;;;;;;;1.77;1.25;;;28.30;38.30;;;;;;5093835;28;20085;-69
2022/07/16 10:21:39;;;;;;;3.53;1.65;;;28.20;38.50;;;;;;5094502;28;20020;-68
2022/07/16 10:24:10;;;;;;;1.38;1.17;;;28.20;38.70;;;;;;5094036;28;20029;-68
2022/07/16 10:26:36;;;;;;;1.70;1.05;;;28.10;38.60;;;;;;5091695;28;20059;-68
2022/07/16 10:29:04;;;;;;;1.55;1.15;;;28.10;38.90;;;;;;5090868;28;20040;-68
2022/07/16 10:31:38;;;;;;;2.45;1.20;;;28.10;39.30;;;;;;5093185;28;20027;-68
2022/07/16 10:34:13;;;;;;;2.55;1.48;;;28.00;39.40;;;;;;5093754;28;20016;-68
2022/07/16 10:36:46;;;;;;;2.50;1.63;;;28.00;39.60;;;;;;5093739;28;20058;-69
2022/07/16 10:39:15;;;;;;;2.08;1.50;;;27.80;39.60;;;;;;5091615;28;20107;-69
2022/07/16 10:41:54;;;;;;;1.95;1.20;;;27.80;39.60;;;;;;5092971;28;20388;-68
2022/07/16 10:44:21;;;;;;;1.73;1.30;;;27.80;40.60;;;;;;5093307;28;20040;-68
2022/07/16 10:47:03;;;;;;;2.33;1.33;;;27.80;40.20;;;;;;5093610;28;20066;-68
2022/07/16 10:49:30;;;;;;;1.65;1.27;;;27.80;39.90;;;;;;5090422;28;20468;-68
2022/07/16 10:52:05;;;;;;;1.55;1.30;;;27.80;40.70;;;;;;5093240;28;20023;-67
2022/07/16 10:54:55;;;;;;;2.17;1.45;;;27.80;39.80;;;;;;5088492;28;20024;-67
2022/07/16 10:57:33;;;;;;;2.55;1.20;;;27.70;38.90;;;;;;5085750;28;20048;-68
2022/07/16 10:59:59;;;;;;;1.42;1.13;;;27.80;38.70;;;;;;5093700;28;20420;-68
2022/07/16 11:02:25;;;;;;;1.88;1.30;;;27.80;39.30;;;;;;5093027;28;20020;-68
2022/07/16 11:04:53;;;;;;;2.40;1.40;;;27.70;40.20;;;;;;5093646;28;20072;-68
2022/07/16 11:07:21;;;;;;;1.40;1.23;;;27.60;40.30;;;;;;5092016;28;20119;-68
2022/07/16 11:09:50;;;;;;;2.00;1.50;;;27.60;41.50;;;;;;5092723;28;20106;-68
2022/07/16 11:12:21;;;;;;;2.80;1.83;;;27.50;41.60;;;;;;5092306;28;20028;-69
2022/07/16 11:14:55;;;;;;;1.83;1.52;;;27.70;41.10;;;;;;5093250;28;20028;-68
2022/07/16 11:17:23;;;;;;;1.67;1.20;;;27.80;41.20;;;;;;5090662;28;20158;-68
2022/07/16 11:19:55;;;;;;;2.25;1.30;;;27.80;40.30;;;;;;5093224;28;20353;-68
2022/07/16 11:22:26;;;;;;;2.15;1.23;;;27.80;40.60;;;;;;5089677;28;20059;-68
2022/07/16 11:24:54;;;;;;;1.83;1.60;;;27.90;41.60;;;;;;5091038;28;20062;-67
2022/07/16 11:27:31;;;;;;;3.63;1.33;;;27.90;40.70;;;;;;5092333;28;20032;-67
2022/07/16 11:29:58;;;;;;;1.40;1.30;;;27.90;40.30;;;;;;5093084;28;20151;-67
2022/07/16 11:32:25;;;;;;;1.95;1.55;;;27.90;38.70;;;;;;5092303;28;20061;-67
2022/07/16 11:34:50;;;;;;;1.40;1.10;;;27.80;38.10;;;;;;5092912;28;20380;-68
2022/07/16 11:37:16;;;;;;;1.63;1.30;;;27.70;38.70;;;;;;5092624;28;20028;-70
2022/07/16 11:39:42;;;;;;;1.90;1.17;;;27.70;38.70;;;;;;5092103;28;20468;-68
2022/07/16 11:42:08;;;;;;;1.83;1.33;;;27.70;38.90;;;;;;5092493;28;20036;-67
2022/07/16 11:44:37;;;;;;;2.10;1.40;;;27.80;40.50;;;;;;5092616;28;20024;-67
2022/07/16 11:47:06;;;;;;;2.10;1.40;;;27.80;40.80;;;;;;5092974;28;20051;-67
2022/07/16 11:49:33;;;;;;;2.97;1.40;;;27.80;41.10;;;;;;5092334;28;20064;-67
2022/07/16 11:52:14;;;;;;;1.30;1.20;;;27.70;40.30;;;;;;5092812;28;20027;-68
2022/07/16 11:54:41;;;;;;;10.40;1.70;;;27.80;39.30;;;;;;5092257;28;20032;-68
2022/07/16 11:57:10;;;;;;;3.17;1.33;;;27.80;38.40;;;;;;5092989;28;20031;-67
2022/07/16 11:59:42;;;;;;;1.67;1.50;;;27.70;39.30;;;;;;5092318;28;20028;-67
2022/07/16 12:02:13;;;;;;;1.38;1.20;;;27.70;39.20;;;;;;5091937;28;20483;-67
2022/07/16 12:05:05;;;;;;;;;;;27.60;39.00;;;;;;5092075;28;20103;-68
2022/07/16 12:07:32;;;;;;;2.67;1.58;;;27.50;39.40;;;;;;5089621;28;19908;-68
2022/07/16 12:10:03;;;;;;;2.65;1.73;;;27.50;39.80;;;;;;5085387;28;20020;-66
2022/07/16 12:12:30;;;;;;;3.83;1.80;;;27.40;39.10;;;;;;5092043;28;20024;-66
2022/07/16 12:15:02;;;;;;;2.20;1.63;;;27.40;39.00;;;;;;5092234;28;20111;-68
2022/07/16 12:17:36;;;;;;;1.80;1.30;;;27.30;39.00;;;;;;5091737;28;20123;-66
2022/07/16 12:20:08;;;;;;;1.83;1.50;;;27.30;38.50;;;;;;5092523;28;20051;-66
2022/07/16 12:22:57;;;;;;;1.67;1.30;;;27.30;38.40;;;;;;5091586;28;20535;-68
2022/07/16 12:25:30;;;;;;;1.98;1.45;;;27.40;38.70;;;;;;5090632;28;20021;-66
2022/07/16 12:28:08;;;;;;;1.60;1.50;;;27.40;38.10;;;;;;5091037;28;20039;-67
2022/07/16 12:30:48;;;;;;;1.48;1.38;;;27.40;38.90;;;;;;5089544;28;20068;-67
2022/07/16 12:33:23;;;;;;;1.63;1.35;;;27.30;38.20;;;;;;5090132;28;20480;-68
2022/07/16 12:35:56;;;;;;;4.10;1.27;;;27.30;38.40;;;;;;5092285;28;20032;-68
2022/07/16 12:38:52;;;;;;;2.03;1.70;;;27.30;38.30;;;;;;5091824;28;20048;-68
2022/07/16 12:41:18;;;;;;;2.00;1.48;;;27.20;38.90;;;;;;5092105;28;20097;-68
2022/07/16 12:43:48;;;;;;;3.92;1.60;;;27.20;38.90;;;;;;5091738;28;20099;-68
2022/07/16 12:46:14;;;;;;;2.03;1.60;;;27.30;39.00;;;;;;5092085;28;20028;-68
2022/07/16 12:48:51;;;;;;;1.85;1.58;;;27.20;39.00;;;;;;5091655;28;20520;-68
2022/07/16 12:51:22;;;;;;;1.42;1.30;;;27.10;39.20;;;;;;5092162;28;20024;-67
2022/07/16 12:53:49;;;;;;;2.80;1.50;;;27.00;39.40;;;;;;5092089;28;20051;-68
2022/07/16 12:59:00;;;;;;;3.50;1.60;;;26.80;40.00;;;;;;5092096;28;20035;-68